createdAt,value
2017-06-26T00:00:10.234Z,66.3
2017-06-26T00:01:09.432Z,66.4
2017-06-26T00:02:09.016Z,66.5
2017-06-26T00:03:08.231Z,66.6
2017-06-26T00:04:08.070Z,66.7
2017-06-26T00:05:07.152Z,66.9
2017-06-26T00:06:06.234Z,67.3
2017-06-26T00:07:05.810Z,67.5
2017-06-26T00:08:04.888Z,67.6
2017-06-26T00:10:04.685Z,67.5
2017-06-26T00:11:02.877Z,67.8
2017-06-26T00:12:02.462Z,67.9
2017-06-26T00:13:01.656Z,68
2017-06-26T00:14:01.355Z,68.1
2017-06-26T00:15:00.555Z,68.3
2017-06-26T00:16:00.012Z,68.4
2017-06-26T00:16:59.222Z,68.5
2017-06-26T00:17:58.420Z,68.5
2017-06-26T00:18:57.616Z,68.4
2017-06-26T00:19:57.194Z,68.5
2017-06-26T00:20:56.390Z,68.5
2017-06-26T00:21:56.345Z,68.5
2017-06-26T00:22:55.076Z,68.5
2017-06-26T00:23:54.275Z,68.5
2017-06-26T00:24:53.858Z,68.5
2017-06-26T00:25:53.055Z,68.4
2017-06-26T00:26:52.757Z,68.4
2017-06-26T00:27:52.209Z,68.4
2017-06-26T00:29:50.293Z,68.3
2017-06-26T00:30:49.996Z,68.3
2017-06-26T00:31:49.076Z,68.2
2017-06-26T00:32:48.769Z,68.2
2017-06-26T00:34:47.605Z,67.9
2017-06-26T00:36:45.690Z,68
2017-06-26T00:37:45.394Z,68.1
2017-06-26T00:38:44.582Z,68.3
2017-06-26T00:39:43.778Z,68.5
2017-06-26T00:40:43.104Z,68.8
2017-06-26T00:41:42.299Z,68.8
2017-06-26T00:42:42.001Z,68.6
2017-06-26T00:43:41.204Z,68.8
2017-06-26T00:44:40.409Z,68.8
2017-06-26T00:45:40.109Z,68.8
2017-06-26T00:46:39.559Z,69
2017-06-26T00:47:38.750Z,69.2
2017-06-26T00:48:37.957Z,69.1
2017-06-26T00:49:36.918Z,69.2
2017-06-26T00:50:36.514Z,69
2017-06-26T00:51:35.987Z,69
2017-06-26T00:52:35.437Z,69
2017-06-26T00:53:34.628Z,68.9
2017-06-26T00:54:33.823Z,68.8
2017-06-26T00:55:33.976Z,68.8
2017-06-26T00:56:32.671Z,68.6
2017-06-26T00:57:31.754Z,68.7
2017-06-26T00:58:31.263Z,68.5
2017-06-26T00:59:30.475Z,68.6
2017-06-26T01:00:29.673Z,68.6
2017-06-26T01:01:29.375Z,68.6
2017-06-26T01:02:28.573Z,68.6
2017-06-26T01:03:27.528Z,68.3
2017-06-26T01:04:27.475Z,68.3
2017-06-26T01:05:26.667Z,68.3
2017-06-26T01:06:26.423Z,68.3
2017-06-26T01:07:25.193Z,68.1
2017-06-26T01:08:24.397Z,68.1
2017-06-26T01:09:23.479Z,68.2
2017-06-26T01:10:23.431Z,68.3
2017-06-26T01:11:23.192Z,68.2
2017-06-26T01:12:21.888Z,68.5
2017-06-26T01:13:20.967Z,68.5
2017-06-26T01:14:20.439Z,68.7
2017-06-26T01:15:19.637Z,69
2017-06-26T01:17:18.479Z,69.2
2017-06-26T01:18:17.679Z,69.2
2017-06-26T01:19:16.876Z,69.2
2017-06-26T01:20:16.606Z,69.2
2017-06-26T01:21:15.804Z,69.2
2017-06-26T01:22:14.895Z,69.3
2017-06-26T01:23:14.846Z,69.4
2017-06-26T01:24:13.546Z,69.1
2017-06-26T01:25:13.243Z,69
2017-06-26T01:26:12.439Z,69.1
2017-06-26T01:27:11.407Z,69.2
2017-06-26T01:28:10.988Z,69.2
2017-06-26T01:29:10.719Z,69.4
2017-06-26T01:30:09.803Z,69.2
2017-06-26T01:31:09.008Z,69.1
2017-06-26T01:32:08.203Z,69
2017-06-26T01:33:07.905Z,68.9
2017-06-26T01:33:38.412Z,68.9
2017-06-26T01:34:08.922Z,68.7
2017-06-26T01:35:06.361Z,68.9
2017-06-26T01:36:05.436Z,68.9
2017-06-26T01:37:05.025Z,68.9
2017-06-26T01:38:04.234Z,68.9
2017-06-26T01:39:03.430Z,68.8
2017-06-26T01:40:03.269Z,68.8
2017-06-26T01:41:02.465Z,68.8
2017-06-26T01:42:01.667Z,68.8
2017-06-26T01:43:00.865Z,68.8
2017-06-26T01:44:00.060Z,68.7
2017-06-26T01:44:59.771Z,68.8
2017-06-26T01:45:59.227Z,68.7
2017-06-26T01:46:58.427Z,68.7
2017-06-26T01:47:57.505Z,68.6
2017-06-26T01:48:56.697Z,68.8
2017-06-26T01:49:56.280Z,68.9
2017-06-26T01:50:55.514Z,68.9
2017-06-26T01:51:55.348Z,69
2017-06-26T01:52:54.305Z,69
2017-06-26T01:53:53.505Z,68.9
2017-06-26T01:54:52.696Z,68.9
2017-06-26T01:55:52.392Z,68.9
2017-06-26T01:56:51.588Z,68.9
2017-06-26T01:57:51.039Z,68.8
2017-06-26T01:58:50.127Z,68.8
2017-06-26T01:59:49.205Z,68.9
2017-06-26T02:00:48.906Z,68.8
2017-06-26T02:01:47.990Z,68.7
2017-06-26T02:02:47.692Z,68.4
2017-06-26T02:04:46.561Z,68.7
2017-06-26T02:05:45.263Z,68.5
2017-06-26T02:06:44.845Z,68.4
2017-06-26T02:07:44.040Z,68.1
2017-06-26T02:08:43.741Z,68.1
2017-06-26T02:09:42.942Z,68.3
2017-06-26T02:10:42.394Z,68.3
2017-06-26T02:11:41.602Z,68.2
2017-06-26T02:12:40.811Z,68.2
2017-06-26T02:13:40.009Z,68.2
2017-06-26T02:14:39.710Z,68
2017-06-26T02:15:39.352Z,68
2017-06-26T02:16:38.461Z,68.1
2017-06-26T02:17:37.659Z,68
2017-06-26T02:18:36.855Z,67.9
2017-06-26T02:19:36.054Z,67.9
2017-06-26T02:20:35.245Z,67.9
2017-06-26T02:21:34.945Z,68
2017-06-26T02:22:34.392Z,67.9
2017-06-26T02:23:33.647Z,67.9
2017-06-26T02:24:32.851Z,67.8
2017-06-26T02:25:32.050Z,67.6
2017-06-26T02:26:31.247Z,67.4
2017-06-26T02:27:30.949Z,67.5
2017-06-26T02:28:30.391Z,67.4
2017-06-26T02:29:29.591Z,67.4
2017-06-26T02:30:28.790Z,67.4
2017-06-26T02:31:27.873Z,67.2
2017-06-26T02:32:27.579Z,67.2
2017-06-26T02:33:26.773Z,67.2
2017-06-26T02:34:26.115Z,67.1
2017-06-26T02:35:25.319Z,67
2017-06-26T02:36:24.517Z,67
2017-06-26T02:37:23.865Z,66.9
2017-06-26T02:38:23.342Z,66.9
2017-06-26T02:39:22.543Z,66.7
2017-06-26T02:40:22.495Z,66.8
2017-06-26T02:41:21.189Z,67
2017-06-26T02:42:20.885Z,66.7
2017-06-26T02:43:20.091Z,66.8
2017-06-26T02:44:19.167Z,66.8
2017-06-26T02:45:18.861Z,66.8
2017-06-26T02:47:17.694Z,66.7
2017-06-26T02:48:16.877Z,66.7
2017-06-26T02:49:16.060Z,66.8
2017-06-26T02:50:15.246Z,66.7
2017-06-26T02:51:14.975Z,66.7
2017-06-26T02:52:14.167Z,66.6
2017-06-26T02:53:13.616Z,66.6
2017-06-26T02:54:12.801Z,66.6
2017-06-26T02:55:11.863Z,66.6
2017-06-26T02:56:11.553Z,66.6
2017-06-26T02:57:10.738Z,66.6
2017-06-26T02:58:09.931Z,66.6
2017-06-26T02:59:09.874Z,66.7
2017-06-26T03:00:08.939Z,66.6
2017-06-26T03:01:08.124Z,66.6
2017-06-26T03:02:07.193Z,66.6
2017-06-26T03:03:06.881Z,66.6
2017-06-26T03:04:06.067Z,66.7
2017-06-26T03:05:05.505Z,66.7
2017-06-26T03:06:04.958Z,66.7
2017-06-26T03:07:04.163Z,66.6
2017-06-26T03:08:03.356Z,66.7
2017-06-26T03:09:03.052Z,66.8
2017-06-26T03:10:02.126Z,66.8
2017-06-26T03:11:01.952Z,66.9
2017-06-26T03:12:00.633Z,67
2017-06-26T03:13:00.330Z,66.9
2017-06-26T03:13:59.517Z,66.8
2017-06-26T03:14:59.282Z,66.7
2017-06-26T03:15:58.045Z,66.6
2017-06-26T03:16:58.045Z,66.6
2017-06-26T03:17:56.725Z,66.3
2017-06-26T03:18:56.054Z,66.2
2017-06-26T03:19:55.621Z,66.1
2017-06-26T03:20:54.806Z,66
2017-06-26T03:21:54.383Z,65.9
2017-06-26T03:22:53.843Z,65.9
2017-06-26T03:23:53.032Z,65.9
2017-06-26T03:24:52.100Z,65.9
2017-06-26T03:25:51.790Z,65.8
2017-06-26T03:26:50.971Z,65.6
2017-06-26T03:27:50.222Z,65.5
2017-06-26T03:28:49.671Z,65.4
2017-06-26T03:29:48.858Z,65.1
2017-06-26T03:30:48.554Z,65.2
2017-06-26T03:31:47.741Z,65
2017-06-26T03:32:46.929Z,64.7
2017-06-26T03:33:46.271Z,64.5
2017-06-26T03:34:45.792Z,64.5
2017-06-26T03:35:44.978Z,64.3
2017-06-26T03:36:44.161Z,64.1
2017-06-26T03:37:43.852Z,64.2
2017-06-26T03:38:43.036Z,64.2
2017-06-26T03:39:42.223Z,64.1
2017-06-26T03:40:42.163Z,64.1
2017-06-26T03:41:41.231Z,64.1
2017-06-26T03:42:40.413Z,63.7
2017-06-26T03:43:39.981Z,63.6
2017-06-26T03:44:39.172Z,63.7
2017-06-26T03:45:38.361Z,63.5
2017-06-26T03:46:37.862Z,63.5
2017-06-26T03:47:36.929Z,63.5
2017-06-26T03:48:36.498Z,63.3
2017-06-26T03:49:35.684Z,63.3
2017-06-26T03:50:35.370Z,63.2
2017-06-26T03:51:34.550Z,63.1
2017-06-26T03:52:33.986Z,63
2017-06-26T03:53:03.977Z,63
2017-06-26T03:53:34.347Z,63
2017-06-26T03:54:04.725Z,63
2017-06-26T03:54:35.230Z,62.8
2017-06-26T03:55:31.902Z,63
2017-06-26T03:56:31.472Z,62.9
2017-06-26T03:57:30.660Z,63
2017-06-26T03:58:29.978Z,63
2017-06-26T03:59:29.429Z,63
2017-06-26T04:00:28.609Z,62.8
2017-06-26T04:01:27.791Z,62.9
2017-06-26T04:02:27.490Z,62.8
2017-06-26T04:03:26.564Z,62.8
2017-06-26T04:04:26.501Z,62.8
2017-06-26T04:05:25.191Z,62.8
2017-06-26T04:06:24.760Z,62.8
2017-06-26T04:07:23.945Z,62.9
2017-06-26T04:08:23.632Z,62.8
2017-06-26T04:09:22.813Z,62.8
2017-06-26T04:10:22.256Z,62.7
2017-06-26T04:11:21.201Z,62.7
2017-06-26T04:12:20.662Z,62.6
2017-06-26T04:13:20.121Z,62.8
2017-06-26T04:14:19.453Z,62.3
2017-06-26T04:14:49.834Z,62.3
2017-06-26T04:15:20.335Z,62.3
2017-06-26T04:16:18.016Z,62.3
2017-06-26T04:17:17.702Z,62.1
2017-06-26T04:18:16.885Z,62.2
2017-06-26T04:19:15.831Z,62.4
2017-06-26T04:20:15.162Z,62.2
2017-06-26T04:21:14.991Z,62.2
2017-06-26T04:22:14.176Z,62.1
2017-06-26T04:23:13.366Z,62.1
2017-06-26T04:24:13.059Z,62
2017-06-26T04:25:12.134Z,62
2017-06-26T04:26:11.466Z,61.7
2017-06-26T04:27:12.321Z,61.6
2017-06-26T04:28:10.499Z,61.4
2017-06-26T04:29:09.689Z,61.2
2017-06-26T04:30:08.879Z,62
2017-06-26T04:31:08.582Z,61.2
2017-06-26T04:32:07.769Z,59.9
2017-06-26T04:33:07.210Z,60
2017-06-26T04:34:06.283Z,60
2017-06-26T04:35:05.464Z,59.4
2017-06-26T04:36:05.151Z,58.9
2017-06-26T04:37:04.342Z,58.5
2017-06-26T04:38:03.913Z,58.1
2017-06-26T04:39:03.359Z,57.8
2017-06-26T04:40:02.430Z,57.5
2017-06-26T04:41:01.763Z,57.1
2017-06-26T04:43:00.337Z,56.1
2017-06-26T04:43:59.914Z,55.6
2017-06-26T04:44:59.352Z,55.1
2017-06-26T04:46:57.951Z,54.4
2017-06-26T04:47:57.152Z,54
2017-06-26T04:49:55.607Z,54.2
2017-06-26T04:51:54.819Z,54.2
2017-06-26T04:52:53.999Z,53.3
2017-06-26T04:53:53.182Z,53.5
2017-06-26T04:54:52.363Z,53.4
2017-06-26T04:55:52.046Z,53.7
2017-06-26T04:56:51.115Z,54.1
2017-06-26T04:57:50.719Z,54.3
2017-06-26T04:58:49.786Z,54.6
2017-06-26T05:00:48.960Z,55.5
2017-06-26T05:01:48.148Z,55.6
2017-06-26T05:03:46.975Z,54.9
2017-06-26T05:05:45.548Z,54.4
2017-06-26T05:06:44.731Z,53.6
2017-06-26T05:07:43.912Z,54.2
2017-06-26T05:08:43.484Z,54.2
2017-06-26T05:09:43.367Z,54.2
2017-06-26T05:10:42.047Z,53.4
2017-06-26T05:11:41.267Z,53.4
2017-06-26T05:12:40.959Z,53
2017-06-26T05:13:40.157Z,53
2017-06-26T05:14:39.919Z,52.6
2017-06-26T05:15:39.433Z,52
2017-06-26T05:16:38.113Z,51.8
2017-06-26T05:17:37.294Z,51.4
2017-06-26T05:18:36.992Z,51.6
2017-06-26T05:19:36.166Z,51.1
2017-06-26T05:20:35.354Z,50.4
2017-06-26T05:21:34.790Z,50.5
2017-06-26T05:22:33.979Z,50.7
2017-06-26T05:23:33.673Z,50.6
2017-06-26T05:24:32.774Z,50.5
2017-06-26T05:25:31.956Z,50.5
2017-06-26T05:26:31.647Z,50.5
2017-06-26T05:27:30.974Z,49.6
2017-06-26T05:28:30.044Z,49.6
2017-06-26T05:29:29.614Z,49.3
2017-06-26T05:30:28.681Z,49
2017-06-26T05:31:28.368Z,49.2
2017-06-26T05:32:27.551Z,49
2017-06-26T05:33:26.873Z,48.6
2017-06-26T05:34:26.622Z,48.4
2017-06-26T05:35:25.805Z,47.8
2017-06-26T05:36:24.991Z,48.1
2017-06-26T05:37:24.182Z,47.4
2017-06-26T05:38:23.382Z,47.4
2017-06-26T05:39:23.329Z,47.2
2017-06-26T05:40:22.511Z,46.8
2017-06-26T05:41:21.585Z,46.9
2017-06-26T05:42:20.774Z,46.9
2017-06-26T05:43:20.467Z,46.9
2017-06-26T05:44:19.655Z,46.9
2017-06-26T05:45:18.985Z,45.9
2017-06-26T05:46:18.193Z,46.3
2017-06-26T05:48:17.156Z,45.6
2017-06-26T05:49:16.338Z,46
2017-06-26T05:50:15.793Z,45.5
2017-06-26T05:51:15.230Z,44.7
2017-06-26T05:52:14.410Z,44.7
2017-06-26T05:53:13.593Z,45.5
2017-06-26T05:54:13.287Z,46
2017-06-26T05:55:12.471Z,45.9
2017-06-26T05:56:11.662Z,46.4
2017-06-26T05:58:10.997Z,46
2017-06-26T05:59:09.681Z,46.6
2017-06-26T06:00:09.267Z,46.6
2017-06-26T06:01:08.457Z,46.6
2017-06-26T06:02:08.729Z,46.7
2017-06-26T06:03:07.296Z,47.1
2017-06-26T06:04:06.739Z,46.6
2017-06-26T06:05:05.805Z,45.7
2017-06-26T06:06:05.318Z,45.7
2017-06-26T06:07:04.768Z,45.7
2017-06-26T06:08:03.875Z,45.6
2017-06-26T06:09:03.575Z,45.9
2017-06-26T06:10:02.899Z,47
2017-06-26T06:11:01.732Z,47.4
2017-06-26T06:12:01.298Z,47.9
2017-06-26T06:13:00.990Z,48.3
2017-06-26T06:14:00.177Z,48.3
2017-06-26T06:14:59.359Z,48.5
2017-06-26T06:15:59.300Z,48.7
2017-06-26T06:16:58.487Z,48.7
2017-06-26T06:17:57.672Z,48.7
2017-06-26T06:18:56.739Z,49.3
2017-06-26T06:19:56.315Z,50.1
2017-06-26T06:20:55.382Z,50.3
2017-06-26T06:21:55.208Z,50.5
2017-06-26T06:22:54.391Z,50.5
2017-06-26T06:23:53.584Z,50.6
2017-06-26T06:24:53.161Z,50.9
2017-06-26T06:25:52.912Z,50.9
2017-06-26T06:26:52.551Z,51.4
2017-06-26T06:27:51.249Z,51.3
2017-06-26T06:28:50.426Z,51.3
2017-06-26T06:29:49.999Z,51.3
2017-06-26T06:30:49.185Z,51.6
2017-06-26T06:31:48.372Z,51.8
2017-06-26T06:32:48.056Z,52
2017-06-26T06:33:47.494Z,52.1
2017-06-26T06:34:46.680Z,52.1
2017-06-26T06:35:45.868Z,52.1
2017-06-26T06:36:45.555Z,52.3
2017-06-26T06:37:44.732Z,52.3
2017-06-26T06:38:44.182Z,52.3
2017-06-26T06:39:43.507Z,52.9
2017-06-26T06:40:42.685Z,52.9
2017-06-26T06:41:42.374Z,52.9
2017-06-26T06:42:41.618Z,53.1
2017-06-26T06:43:40.806Z,53.4
2017-06-26T06:44:39.999Z,53.3
2017-06-26T06:45:39.949Z,53.3
2017-06-26T06:46:39.012Z,53.3
2017-06-26T06:47:38.191Z,53.8
2017-06-26T06:48:37.885Z,53.9
2017-06-26T06:49:37.075Z,53.7
2017-06-26T06:50:36.285Z,53.8
2017-06-26T06:51:36.118Z,53.6
2017-06-26T06:52:35.318Z,53.6
2017-06-26T06:53:34.519Z,53.6
2017-06-26T06:54:33.706Z,54
2017-06-26T06:55:33.402Z,54
2017-06-26T06:56:32.599Z,54.2
2017-06-26T06:57:31.929Z,54.2
2017-06-26T06:58:31.125Z,54.2
2017-06-26T06:59:30.818Z,54.4
2017-06-26T07:00:30.020Z,54.7
2017-06-26T07:01:29.231Z,55
2017-06-26T07:02:28.927Z,54.9
2017-06-26T07:03:28.390Z,54.8
2017-06-26T07:04:27.577Z,54.9
2017-06-26T07:05:26.777Z,54.9
2017-06-26T07:06:26.362Z,55
2017-06-26T07:07:25.564Z,54.6
2017-06-26T07:08:25.900Z,54.9
2017-06-26T07:09:24.345Z,54.6
2017-06-26T07:10:23.432Z,54.6
2017-06-26T07:11:23.149Z,54.8
2017-06-26T07:12:22.230Z,54.8
2017-06-26T07:13:21.428Z,54.9
2017-06-26T07:14:21.135Z,55
2017-06-26T07:15:20.462Z,54.7
2017-06-26T07:16:19.671Z,54.9
2017-06-26T07:17:18.750Z,54.9
2017-06-26T07:18:18.230Z,54.3
2017-06-26T07:19:17.809Z,54.6
2017-06-26T07:20:17.398Z,54.6
2017-06-26T07:22:16.119Z,54.3
2017-06-26T07:23:15.903Z,54.1
2017-06-26T07:24:15.164Z,53.9
2017-06-26T07:25:14.020Z,54
2017-06-26T07:26:13.219Z,53.7
2017-06-26T07:27:12.811Z,53.7
2017-06-26T07:28:12.271Z,53.7
2017-06-26T07:29:11.483Z,54.1
2017-06-26T07:30:10.573Z,53.7
2017-06-26T07:31:10.188Z,54.1
2017-06-26T07:32:09.390Z,54.6
2017-06-26T07:33:08.661Z,54.7
2017-06-26T07:34:09.179Z,54.6
2017-06-26T07:35:07.371Z,54.6
2017-06-26T07:36:07.110Z,54.6
2017-06-26T07:37:06.370Z,54.5
2017-06-26T07:38:05.570Z,54.4
2017-06-26T07:39:05.147Z,54.5
2017-06-26T07:40:04.484Z,54.7
2017-06-26T07:41:03.447Z,54.7
2017-06-26T07:42:03.038Z,54.7
2017-06-26T07:43:02.505Z,54.5
2017-06-26T07:44:01.701Z,54.4
2017-06-26T07:45:01.858Z,54.4
2017-06-26T07:46:00.686Z,54.4
2017-06-26T07:47:00.445Z,54.4
2017-06-26T07:47:59.152Z,54.4
2017-06-26T07:48:58.746Z,54.3
2017-06-26T07:49:58.033Z,54.1
2017-06-26T07:50:57.311Z,53.9
2017-06-26T07:51:57.273Z,53.9
2017-06-26T07:52:55.981Z,53.6
2017-06-26T07:53:55.563Z,53.7
2017-06-26T07:54:55.323Z,53.7
2017-06-26T07:55:54.023Z,53.4
2017-06-26T07:56:53.485Z,53.9
2017-06-26T07:57:53.207Z,53.5
2017-06-26T07:58:52.174Z,53.3
2017-06-26T07:59:51.642Z,53.4
2017-06-26T08:00:50.858Z,53.6
2017-06-26T08:01:50.567Z,54.1
2017-06-26T08:02:50.328Z,54.1
2017-06-26T08:04:48.677Z,59.7
2017-06-26T08:05:47.885Z,60.4
2017-06-26T08:07:46.538Z,61.5
2017-06-26T08:08:45.747Z,62.4
2017-06-26T08:09:46.023Z,62.2
2017-06-26T08:10:44.981Z,62.2
2017-06-26T08:11:44.187Z,63.1
2017-06-26T08:12:43.400Z,62.5
2017-06-26T08:13:42.539Z,62.7
2017-06-26T08:14:42.250Z,62.9
2017-06-26T08:15:41.448Z,62.8
2017-06-26T08:16:40.893Z,62.8
2017-06-26T08:17:40.009Z,62
2017-06-26T08:18:39.258Z,61.8
2017-06-26T08:19:38.971Z,61.9
2017-06-26T08:20:38.185Z,61.9
2017-06-26T08:21:37.842Z,61.6
2017-06-26T08:22:37.287Z,61.6
2017-06-26T08:23:36.000Z,62.4
2017-06-26T08:24:35.599Z,62.9
2017-06-26T08:25:34.809Z,62.8
2017-06-26T08:26:33.899Z,62.9
2017-06-26T08:27:33.605Z,62.6
2017-06-26T08:28:32.943Z,62.4
2017-06-26T08:30:31.531Z,61.4
2017-06-26T08:31:30.726Z,60.8
2017-06-26T08:32:29.935Z,60.4
2017-06-26T08:33:29.401Z,60.8
2017-06-26T08:34:28.910Z,60.3
2017-06-26T08:35:28.104Z,60
2017-06-26T08:36:27.310Z,59.8
2017-06-26T08:38:25.889Z,60.1
2017-06-26T08:39:25.600Z,60.1
2017-06-26T08:40:24.955Z,59.5
2017-06-26T08:41:24.037Z,59.7
2017-06-26T08:42:23.239Z,58.5
2017-06-26T08:43:22.815Z,58
2017-06-26T08:44:22.087Z,58.9
2017-06-26T08:45:21.057Z,58.4
2017-06-26T08:46:20.896Z,59.3
2017-06-26T08:47:19.982Z,59.3
2017-06-26T08:48:19.064Z,58.9
2017-06-26T08:49:19.201Z,57.8
2017-06-26T08:50:17.909Z,56.7
2017-06-26T08:51:16.989Z,56.7
2017-06-26T08:53:16.910Z,56.5
2017-06-26T08:54:15.365Z,56.9
2017-06-26T08:55:14.458Z,56.9
2017-06-26T08:56:14.172Z,56.9
2017-06-26T08:57:13.434Z,57.5
2017-06-26T09:00:11.557Z,56.9
2017-06-26T09:01:10.755Z,57.5
2017-06-26T09:02:09.970Z,57.6
2017-06-26T09:03:09.166Z,57.6
2017-06-26T09:04:08.946Z,57.6
2017-06-26T09:05:08.045Z,57.1
2017-06-26T09:06:07.505Z,58.1
2017-06-26T09:07:06.716Z,58.6
2017-06-26T09:08:05.790Z,58.6
2017-06-26T09:10:04.761Z,59.3
2017-06-26T09:11:03.964Z,59.2
2017-06-26T09:12:03.428Z,59.8
2017-06-26T09:14:01.796Z,57.9
2017-06-26T09:15:01.009Z,58
2017-06-26T09:16:00.722Z,58
2017-06-26T09:16:59.691Z,58
2017-06-26T09:17:59.646Z,58.2
2017-06-26T09:18:58.226Z,59.1
2017-06-26T09:19:57.808Z,59.1
2017-06-26T09:20:56.892Z,58.7
2017-06-26T09:21:56.416Z,58.7
2017-06-26T09:22:55.616Z,58.8
2017-06-26T09:23:55.458Z,59.3
2017-06-26T09:24:54.657Z,59.5
2017-06-26T09:25:54.416Z,60.2
2017-06-26T09:27:52.502Z,60.2
2017-06-26T09:28:51.703Z,60.5
2017-06-26T09:29:51.163Z,60.5
2017-06-26T09:30:50.366Z,60.5
2017-06-26T09:31:49.572Z,60.6
2017-06-26T09:32:48.780Z,60.9
2017-06-26T09:33:48.428Z,61.4
2017-06-26T09:34:48.202Z,61.4
2017-06-26T09:35:46.979Z,61.3
2017-06-26T09:36:46.055Z,61.3
2017-06-26T09:37:45.757Z,61.3
2017-06-26T09:38:44.845Z,59.6
2017-06-26T09:39:44.630Z,60.1
2017-06-26T09:40:43.727Z,60.6
2017-06-26T09:41:43.185Z,61
2017-06-26T09:42:42.395Z,60.4
2017-06-26T09:43:41.597Z,60.3
2017-06-26T09:44:40.806Z,60.3
2017-06-26T09:45:40.071Z,59.6
2017-06-26T09:46:39.275Z,61.1
2017-06-26T09:47:39.240Z,61.1
2017-06-26T09:48:37.830Z,61.1
2017-06-26T09:49:37.408Z,64.1
2017-06-26T09:50:36.567Z,67.2
2017-06-26T09:51:35.643Z,67.8
2017-06-26T09:53:34.911Z,67.6
2017-06-26T09:54:33.996Z,69.9
2017-06-26T09:55:33.078Z,67.5
2017-06-26T09:56:32.789Z,69.7
2017-06-26T09:58:31.828Z,69
2017-06-26T09:59:30.669Z,71.4
2017-06-26T10:00:29.654Z,71.4
2017-06-26T10:01:29.315Z,72
2017-06-26T10:02:28.303Z,71.8
2017-06-26T10:03:27.506Z,71.9
2017-06-26T10:04:26.973Z,71
2017-06-26T10:05:26.421Z,71
2017-06-26T10:06:25.620Z,71
2017-06-26T10:07:24.843Z,70.6
2017-06-26T10:08:24.041Z,69.5
2017-06-26T10:09:24.301Z,70.4
2017-06-26T10:10:22.892Z,70.2
2017-06-26T10:11:22.351Z,70.3
2017-06-26T10:12:21.424Z,70.5
2017-06-26T10:13:20.623Z,70.3
2017-06-26T10:14:20.320Z,70.1
2017-06-26T10:15:19.460Z,69.2
2017-06-26T10:16:18.694Z,68.6
2017-06-26T10:17:18.209Z,69.1
2017-06-26T10:18:17.424Z,69.3
2017-06-26T10:19:16.513Z,69.3
2017-06-26T10:20:15.714Z,67.7
2017-06-26T10:21:15.182Z,67.5
2017-06-26T10:22:14.344Z,66.3
2017-06-26T10:23:14.298Z,66.3
2017-06-26T10:24:12.992Z,66.3
2017-06-26T10:25:12.274Z,66.3
2017-06-26T10:26:11.422Z,66
2017-06-26T10:27:11.004Z,63.7
2017-06-26T10:28:10.207Z,63
2017-06-26T10:29:09.550Z,63.2
2017-06-26T10:30:08.761Z,62
2017-06-26T10:31:08.471Z,60.6
2017-06-26T10:32:07.552Z,59.1
2017-06-26T10:33:06.627Z,58.8
2017-06-26T10:34:06.332Z,59.1
2017-06-26T10:34:36.911Z,59.1
2017-06-26T10:35:07.294Z,58.7
2017-06-26T10:35:37.810Z,58.7
2017-06-26T10:37:04.063Z,57.7
2017-06-26T10:38:03.647Z,56.2
2017-06-26T10:39:02.860Z,56.5
2017-06-26T10:40:02.224Z,56.5
2017-06-26T10:41:01.312Z,56.5
2017-06-26T10:42:01.461Z,56.6
2017-06-26T10:43:00.149Z,55.7
2017-06-26T10:43:59.358Z,56.1
2017-06-26T10:44:58.445Z,55.4
2017-06-26T10:45:58.402Z,55.1
2017-06-26T10:46:57.145Z,54.8
2017-06-26T10:47:56.732Z,51.7
2017-06-26T10:48:56.035Z,51
2017-06-26T10:49:55.189Z,51.7
2017-06-26T10:50:54.391Z,51.1
2017-06-26T10:51:54.225Z,50.1
2017-06-26T10:52:53.435Z,50.9
2017-06-26T10:53:52.524Z,50.5
2017-06-26T10:54:51.606Z,51.4
2017-06-26T10:55:51.314Z,50.9
2017-06-26T10:56:50.388Z,51.4
2017-06-26T10:57:50.211Z,51.4
2017-06-26T10:58:48.792Z,51.4
2017-06-26T10:59:49.077Z,50.1
2017-06-26T11:00:47.771Z,50
2017-06-26T11:02:46.249Z,50.7
2017-06-26T11:03:46.190Z,51
2017-06-26T11:04:44.885Z,51.1
2017-06-26T11:05:44.588Z,50.5
2017-06-26T11:06:43.787Z,49.9
2017-06-26T11:07:42.983Z,49.6
2017-06-26T11:08:42.568Z,50.4
2017-06-26T11:09:42.592Z,50.1
2017-06-26T11:10:41.289Z,50.6
2017-06-26T11:11:40.488Z,49.8
2017-06-26T11:12:39.575Z,50.3
2017-06-26T11:13:39.034Z,50.5
2017-06-26T11:14:38.240Z,50.1
2017-06-26T11:15:38.206Z,50.1
2017-06-26T11:16:36.982Z,50.1
2017-06-26T11:17:36.686Z,50.4
2017-06-26T11:19:35.269Z,50.2
2017-06-26T11:20:34.468Z,50.5
2017-06-26T11:21:33.982Z,50.2
2017-06-26T11:22:33.171Z,50.2
2017-06-26T11:23:32.379Z,49.9
2017-06-26T11:24:31.973Z,50.5
2017-06-26T11:25:31.167Z,50.3
2017-06-26T11:26:30.242Z,50.4
2017-06-26T11:27:30.198Z,50.5
2017-06-26T11:28:29.410Z,50.7
2017-06-26T11:30:27.890Z,49.4
2017-06-26T11:31:27.600Z,49.3
2017-06-26T11:33:26.445Z,49
2017-06-26T11:34:26.098Z,48.5
2017-06-26T11:35:24.564Z,48.8
2017-06-26T11:36:24.279Z,48.8
2017-06-26T11:37:23.117Z,48.6
2017-06-26T11:38:22.814Z,49.1
2017-06-26T11:39:22.275Z,49.4
2017-06-26T11:40:21.485Z,47.9
2017-06-26T11:41:20.690Z,48.4
2017-06-26T11:42:20.398Z,49
2017-06-26T11:43:19.600Z,48.9
2017-06-26T11:44:18.809Z,48.7
2017-06-26T11:46:18.156Z,48.4
2017-06-26T11:47:16.912Z,48.6
2017-06-26T11:48:16.643Z,48.2
2017-06-26T11:49:15.490Z,48
2017-06-26T11:50:15.080Z,48
2017-06-26T11:52:14.312Z,48
2017-06-26T11:53:13.513Z,48.2
2017-06-26T11:54:12.582Z,48.2
2017-06-26T11:55:12.286Z,47.6
2017-06-26T11:56:11.482Z,47.7
2017-06-26T11:57:11.241Z,48.4
2017-06-26T11:58:10.207Z,48.3
2017-06-26T11:59:09.789Z,47.6
2017-06-26T12:00:08.988Z,47.9
2017-06-26T12:01:08.180Z,47.6
2017-06-26T12:03:07.274Z,48.8
2017-06-26T12:04:06.538Z,48.9
2017-06-26T12:05:05.737Z,49.1
2017-06-26T12:06:05.587Z,49.2
2017-06-26T12:07:04.549Z,49.6
2017-06-26T12:08:03.630Z,49.6
2017-06-26T12:09:03.644Z,49.6
2017-06-26T12:10:02.732Z,49.9
2017-06-26T12:11:02.777Z,49.8
2017-06-26T12:12:01.483Z,48.5
2017-06-26T12:13:00.563Z,48.9
2017-06-26T12:14:00.856Z,49.8
2017-06-26T12:14:59.807Z,49.9
2017-06-26T12:15:58.899Z,48.3
2017-06-26T12:16:58.100Z,48.5
2017-06-26T12:17:57.804Z,48.7
2017-06-26T12:18:57.032Z,47.6
2017-06-26T12:19:56.127Z,48.3
2017-06-26T12:20:55.862Z,48.5
2017-06-26T12:21:54.940Z,49.2
2017-06-26T12:22:54.651Z,48.7
2017-06-26T12:23:54.432Z,49.5
2017-06-26T12:24:53.518Z,49.5
2017-06-26T12:25:53.296Z,49.5
2017-06-26T12:26:52.130Z,50.8
2017-06-26T12:27:51.212Z,50.3
2017-06-26T12:28:50.917Z,50.8
2017-06-26T12:29:50.111Z,50.3
2017-06-26T12:30:49.322Z,50.3
2017-06-26T12:31:49.019Z,50.3
2017-06-26T12:32:48.349Z,50.7
2017-06-26T12:33:47.436Z,51.2
2017-06-26T12:34:47.059Z,51.8
2017-06-26T12:35:46.844Z,51.3
2017-06-26T12:36:45.482Z,50.8
2017-06-26T12:37:45.193Z,50.9
2017-06-26T12:38:44.641Z,50.4
2017-06-26T12:39:43.825Z,51.1
2017-06-26T12:41:42.177Z,50.5
2017-06-26T12:42:41.874Z,50.5
2017-06-26T12:43:40.953Z,50.5
2017-06-26T12:44:40.781Z,50.1
2017-06-26T12:45:39.987Z,50.6
2017-06-26T12:46:39.063Z,49.3
2017-06-26T12:47:38.769Z,48.9
2017-06-26T12:48:37.918Z,49.4
2017-06-26T12:49:37.529Z,49.1
2017-06-26T12:50:36.995Z,50
2017-06-26T12:51:35.948Z,49.1
2017-06-26T12:52:06.450Z,49.1
2017-06-26T12:52:36.962Z,49.1
2017-06-26T12:53:07.891Z,49.1
2017-06-26T12:53:37.906Z,49.1
2017-06-26T12:54:34.085Z,49.5
2017-06-26T12:55:33.820Z,47.8
2017-06-26T12:56:33.162Z,48.1
2017-06-26T12:57:32.369Z,48
2017-06-26T12:58:31.954Z,47.4
2017-06-26T12:59:31.029Z,47.2
2017-06-26T13:00:30.498Z,47.2
2017-06-26T13:01:29.697Z,47.2
2017-06-26T13:02:29.646Z,47.3
2017-06-26T13:03:28.494Z,47.1
2017-06-26T13:04:28.637Z,45.9
2017-06-26T13:05:27.105Z,46.8
2017-06-26T13:06:26.697Z,45.8
2017-06-26T13:07:25.892Z,45.7
2017-06-26T13:08:25.732Z,45.2
2017-06-26T13:09:24.951Z,44.9
2017-06-26T13:10:24.039Z,45.3
2017-06-26T13:11:23.762Z,45.1
2017-06-26T13:12:22.969Z,45.6
2017-06-26T13:13:22.164Z,46.2
2017-06-26T13:14:21.993Z,45.7
2017-06-26T13:15:21.196Z,45.1
2017-06-26T13:16:20.279Z,46
2017-06-26T13:17:19.850Z,46.6
2017-06-26T13:18:19.051Z,46.6
2017-06-26T13:19:18.829Z,46.6
2017-06-26T13:20:18.280Z,46.6
2017-06-26T13:21:17.477Z,47
2017-06-26T13:22:16.676Z,47.8
2017-06-26T13:23:15.872Z,47.4
2017-06-26T13:24:15.580Z,46.6
2017-06-26T13:25:14.673Z,46.6
2017-06-26T13:26:14.190Z,47.4
2017-06-26T13:27:13.661Z,47.5
2017-06-26T13:28:12.859Z,47
2017-06-26T13:29:12.064Z,46
2017-06-26T13:30:12.348Z,46
2017-06-26T13:31:11.048Z,46.9
2017-06-26T13:32:10.522Z,46.3
2017-06-26T13:33:09.718Z,46.6
2017-06-26T13:34:08.924Z,46.6
2017-06-26T13:35:08.515Z,46.4
2017-06-26T13:36:07.605Z,46.4
2017-06-26T13:37:07.891Z,45.8
2017-06-26T13:38:06.700Z,46.1
2017-06-26T13:39:05.788Z,45.1
2017-06-26T13:40:05.492Z,46.4
2017-06-26T13:41:04.329Z,47
2017-06-26T13:42:03.905Z,46.2
2017-06-26T13:43:03.858Z,46.3
2017-06-26T13:44:02.558Z,46.6